CheckWX is a tool to help pilots better visualize weather data.  It is not intended as a substitute for an official pre-flight weather briefing.

14:07:38 UTC

KASL METAR
Harrison County Airport
Marshall, Texas, USA
Current

33 mins ago

KASL 261335Z AUTO 03004KT 10SM CLR 17/12 A3016 RMK AO1 T01710117
Observed
Apr-26 @ 13:35 UTC
Wind
  • 030° at 4 KTS
Visibility
10 SM
Flight Rules
VFR
Cloud Levels
  • Clear skies
Temperature
17°C / 63°F
Dewpoint
12°C / 54°F
Humidity
73%
Altimeter
30.16" Hg
Pressure
1021.32 hPa
Previous

53 mins ago

KASL 261315Z AUTO 01006KT 10SM CLR 17/12 A3015 RMK AO1 T01650122
Observed
Apr-26 @ 13:15 UTC
Wind
  • 010° at 6 KTS
Visibility
10 SM
Flight Rules
VFR
Cloud Levels
  • Clear skies
Temperature
17°C / 63°F
Dewpoint
12°C / 54°F
Humidity
73%
Altimeter
30.15" Hg
Pressure
1021.02 hPa
Previous

1 hour ago

KASL 261255Z AUTO 02007KT 10SM CLR 16/12 A3014 RMK AO1 T01550122
Observed
Apr-26 @ 12:55 UTC
Wind
  • 020° at 7 KTS
Visibility
10 SM
Flight Rules
VFR
Cloud Levels
  • Clear skies
Temperature
16°C / 61°F
Dewpoint
12°C / 54°F
Humidity
77%
Altimeter
30.14" Hg
Pressure
1020.62 hPa